createdAt,value
2022-12-31T00:00:08.670Z,97591.44
2022-12-31T00:02:36.101Z,97578.53
2022-12-31T00:05:03.003Z,97566.06
2022-12-31T00:07:29.436Z,97562.97
2022-12-31T00:09:55.940Z,97567.16
2022-12-31T00:12:22.428Z,97561.03
2022-12-31T00:14:48.920Z,97560.78
2022-12-31T00:17:15.378Z,97558.28
2022-12-31T00:19:41.839Z,97550.47
2022-12-31T00:22:08.358Z,97545.34
2022-12-31T00:24:35.896Z,97547.72
2022-12-31T00:27:02.572Z,97557.44
2022-12-31T00:29:29.036Z,97557.56
2022-12-31T00:31:55.586Z,97563.00
2022-12-31T00:34:22.202Z,97548.56
2022-12-31T00:36:48.943Z,97553.81
2022-12-31T00:39:15.553Z,97552.31
2022-12-31T00:41:43.921Z,97538.28
2022-12-31T00:44:14.307Z,97527.75
2022-12-31T00:49:06.678Z,97537.81
2022-12-31T00:51:33.574Z,97539.38
2022-12-31T00:54:00.780Z,97538.81
2022-12-31T00:56:30.596Z,97545.09
2022-12-31T00:58:58.961Z,97545.09
2022-12-31T01:01:35.591Z,97547.84
2022-12-31T01:04:08.907Z,97557.19
2022-12-31T01:06:35.595Z,97554.69
2022-12-31T01:09:02.322Z,97563.16
2022-12-31T01:11:29.511Z,97562.91
2022-12-31T01:14:16.272Z,97560.25
2022-12-31T01:16:52.376Z,97549.56
2022-12-31T01:19:27.382Z,97549.69
2022-12-31T01:21:55.644Z,97532.47
2022-12-31T01:24:22.978Z,97541.06
2022-12-31T01:26:51.147Z,97552.19
2022-12-31T01:29:17.895Z,97541.22
2022-12-31T01:31:44.433Z,97549.69
2022-12-31T01:34:11.045Z,97550.25
2022-12-31T01:36:38.634Z,97536.06
2022-12-31T01:39:08.118Z,97545.66
2022-12-31T01:41:42.699Z,97552.03
2022-12-31T01:44:11.809Z,97551.94
2022-12-31T01:46:53.289Z,97542.19
2022-12-31T01:49:29.841Z,97555.94
2022-12-31T01:52:07.365Z,97548.31
2022-12-31T01:54:43.095Z,97545.25
2022-12-31T01:57:11.712Z,97549.13
2022-12-31T01:59:38.619Z,97543.00
2022-12-31T02:02:05.896Z,97533.84
2022-12-31T02:04:32.595Z,97535.22
2022-12-31T02:07:10.203Z,97550.22
2022-12-31T02:09:40.172Z,97533.13
2022-12-31T02:12:09.218Z,97526.03
2022-12-31T02:14:49.949Z,97538.66
2022-12-31T02:17:45.768Z,97528.78
2022-12-31T02:20:54.519Z,97545.22
2022-12-31T02:24:19.459Z,97545.78
2022-12-31T02:27:03.209Z,97548.69
2022-12-31T02:29:58.420Z,97541.59
2022-12-31T02:32:31.744Z,97538.81
2022-12-31T02:35:25.802Z,97549.53
2022-12-31T02:38:01.455Z,97548.56
2022-12-31T02:40:28.740Z,97548.28
2022-12-31T02:42:55.858Z,97550.63
2022-12-31T02:45:31.663Z,97552.28
2022-12-31T02:48:16.165Z,97554.94
2022-12-31T02:51:01.951Z,97563.84
2022-12-31T02:54:01.107Z,97555.66
2022-12-31T02:56:51.779Z,97562.88
2022-12-31T02:59:56.471Z,97558.41
2022-12-31T03:02:28.032Z,97566.19
2022-12-31T03:04:57.217Z,97560.75
2022-12-31T03:07:28.419Z,97567.00
2022-12-31T03:09:55.635Z,97575.06
2022-12-31T03:12:49.884Z,97575.53
2022-12-31T03:15:22.751Z,97585.50
2022-12-31T03:18:11.799Z,97590.91
2022-12-31T03:21:04.310Z,97578.97
2022-12-31T03:23:41.623Z,97572.28
2022-12-31T03:26:11.671Z,97569.91
2022-12-31T03:28:41.860Z,97577.69
2022-12-31T03:31:09.735Z,97571.16
2022-12-31T03:33:40.219Z,97576.59
2022-12-31T03:36:11.514Z,97581.59
2022-12-31T03:38:38.591Z,97582.16
2022-12-31T03:41:05.602Z,97579.06
2022-12-31T03:43:32.191Z,97579.63
2022-12-31T03:46:01.151Z,97590.47
2022-12-31T03:48:27.645Z,97584.34
2022-12-31T03:50:54.168Z,97593.00
2022-12-31T03:53:20.615Z,97590.78
2022-12-31T03:55:52.584Z,97597.75
2022-12-31T03:58:19.097Z,97597.47
2022-12-31T04:00:45.619Z,97597.59
2022-12-31T04:03:12.188Z,97592.88
2022-12-31T04:05:38.961Z,97588.97
2022-12-31T04:08:05.490Z,97600.09
2022-12-31T04:10:31.982Z,97610.22
2022-12-31T04:13:00.233Z,97601.31
2022-12-31T04:15:26.734Z,97615.91
2022-12-31T04:17:53.196Z,97601.59
2022-12-31T04:20:19.716Z,97601.31
2022-12-31T04:22:46.180Z,97610.06
2022-12-31T04:25:12.942Z,97602.56
2022-12-31T04:27:41.322Z,97604.91
2022-12-31T04:30:09.023Z,97609.63
2022-12-31T04:32:35.560Z,97608.81
2022-12-31T04:35:02.039Z,97605.22
2022-12-31T04:37:28.573Z,97608.13
2022-12-31T04:39:58.973Z,97596.59
2022-12-31T04:42:28.453Z,97603.28
2022-12-31T04:44:54.889Z,97599.66
2022-12-31T04:47:23.829Z,97601.31
2022-12-31T04:49:50.631Z,97596.31
2022-12-31T04:52:17.171Z,97602.41
2022-12-31T04:54:43.828Z,97606.31
2022-12-31T04:57:10.358Z,97605.88
2022-12-31T04:59:36.854Z,97616.47
2022-12-31T05:02:03.596Z,97595.31
2022-12-31T05:04:30.269Z,97607.53
2022-12-31T05:06:56.897Z,97609.63
2022-12-31T05:09:24.175Z,97603.84
2022-12-31T05:11:50.934Z,97616.63
2022-12-31T05:14:17.519Z,97610.06
2022-12-31T05:16:44.090Z,97621.31
2022-12-31T05:19:10.649Z,97628.28
2022-12-31T05:21:37.137Z,97624.38
2022-12-31T05:24:03.827Z,97627.97
2022-12-31T05:26:30.482Z,97638.56
2022-12-31T05:28:57.015Z,97649.41
2022-12-31T05:31:23.540Z,97631.56
2022-12-31T05:33:50.043Z,97651.06
2022-12-31T05:36:16.563Z,97659.97
2022-12-31T05:38:43.027Z,97655.94
2022-12-31T05:41:11.181Z,97661.34
2022-12-31T05:43:39.754Z,97651.19
2022-12-31T05:46:06.340Z,97647.13
2022-12-31T05:48:33.034Z,97636.53
2022-12-31T05:50:59.645Z,97639.91
2022-12-31T05:53:26.158Z,97641.06
2022-12-31T05:55:52.723Z,97636.16
2022-12-31T05:58:19.278Z,97649.66
2022-12-31T06:00:46.127Z,97639.75
2022-12-31T06:03:13.375Z,97648.81
2022-12-31T06:05:42.839Z,97649.94
2022-12-31T06:08:11.298Z,97652.13
2022-12-31T06:10:38.294Z,97668.19
2022-12-31T06:13:04.982Z,97671.38
2022-12-31T06:15:31.737Z,97660.50
2022-12-31T06:17:58.305Z,97673.16
2022-12-31T06:20:24.787Z,97667.13
2022-12-31T06:22:51.273Z,97655.16
2022-12-31T06:25:17.750Z,97658.06
2022-12-31T06:27:44.265Z,97662.91
2022-12-31T06:30:11.854Z,97677.97
2022-12-31T06:32:39.307Z,97679.63
2022-12-31T06:35:06.949Z,97686.28
2022-12-31T06:37:33.473Z,97691.91
2022-12-31T06:40:00.644Z,97695.38
2022-12-31T06:42:31.407Z,97680.22
2022-12-31T06:44:59.122Z,97693.94
2022-12-31T06:47:26.243Z,97702.63
2022-12-31T06:49:53.185Z,97693.19
2022-12-31T06:52:20.498Z,97701.41
2022-12-31T06:54:48.076Z,97702.06
2022-12-31T06:57:15.664Z,97706.94
2022-12-31T06:59:44.711Z,97709.19
2022-12-31T07:02:21.638Z,97719.22
2022-12-31T07:05:26.723Z,97727.84
2022-12-31T07:08:31.622Z,97732.31
2022-12-31T07:11:18.614Z,97738.56
2022-12-31T07:14:05.475Z,97733.88
2022-12-31T07:16:56.176Z,97737.31
2022-12-31T07:19:38.932Z,97741.22
2022-12-31T07:22:13.219Z,97745.13
2022-12-31T07:24:40.543Z,97745.94
2022-12-31T07:27:49.946Z,97744.25
2022-12-31T07:30:28.146Z,97750.22
2022-12-31T07:33:15.724Z,97740.75
2022-12-31T07:36:05.379Z,97751.44
2022-12-31T07:38:46.810Z,97749.34
2022-12-31T07:41:22.153Z,97744.34
2022-12-31T07:44:08.461Z,97744.34
2022-12-31T07:46:57.435Z,97746.31
2022-12-31T07:49:27.117Z,97762.97
2022-12-31T07:51:54.836Z,97757.81
2022-12-31T07:54:21.681Z,97773.41
2022-12-31T07:56:50.677Z,97775.03
2022-12-31T07:59:54.331Z,97768.53
2022-12-31T08:03:17.178Z,97774.28
2022-12-31T08:06:12.488Z,97782.50
2022-12-31T08:08:58.686Z,97781.00
2022-12-31T08:11:37.908Z,97777.75
2022-12-31T08:14:11.728Z,97782.66
2022-12-31T08:16:38.861Z,97782.50
2022-12-31T08:19:06.183Z,97782.47
2022-12-31T08:22:17.554Z,97797.09
2022-12-31T08:25:02.075Z,97791.66
2022-12-31T08:28:06.921Z,97798.22
2022-12-31T08:30:38.504Z,97808.09
2022-12-31T08:33:18.359Z,97801.25
2022-12-31T08:36:33.191Z,97800.69
2022-12-31T08:39:33.541Z,97802.97
2022-12-31T08:42:05.659Z,97812.97
2022-12-31T08:44:55.684Z,97815.88
2022-12-31T08:48:08.416Z,97820.50
2022-12-31T08:50:35.275Z,97819.22
2022-12-31T08:53:02.352Z,97812.38
2022-12-31T08:55:29.505Z,97814.03
2022-12-31T08:58:45.267Z,97818.50
2022-12-31T09:01:15.504Z,97818.75
2022-12-31T09:04:22.501Z,97814.31
2022-12-31T09:06:59.183Z,97822.97
2022-12-31T09:09:57.782Z,97815.41
2022-12-31T09:12:42.150Z,97817.50
2022-12-31T09:15:21.122Z,97828.09
2022-12-31T09:17:50.815Z,97825.13
2022-12-31T09:20:41.774Z,97832.88
2022-12-31T09:23:11.160Z,97832.16
2022-12-31T09:25:55.772Z,97827.28
2022-12-31T09:28:59.619Z,97829.53
2022-12-31T09:31:40.339Z,97832.72
2022-12-31T09:34:17.525Z,97833.13
2022-12-31T09:36:50.694Z,97823.66
2022-12-31T09:39:40.956Z,97825.91
2022-12-31T09:42:35.168Z,97836.81
2022-12-31T09:45:52.499Z,97849.75
2022-12-31T09:48:50.589Z,97849.63
2022-12-31T09:51:44.814Z,97863.75
2022-12-31T09:55:05.107Z,97866.09
2022-12-31T09:58:02.518Z,97880.03
2022-12-31T10:00:43.426Z,97883.50
2022-12-31T10:03:50.225Z,97894.41
2022-12-31T10:06:23.100Z,97902.31
2022-12-31T10:09:36.835Z,97915.97
2022-12-31T10:12:53.502Z,97916.25
2022-12-31T10:15:43.583Z,97911.75
2022-12-31T10:18:50.155Z,97913.41
2022-12-31T10:21:28.066Z,97914.53
2022-12-31T10:24:47.452Z,97917.44
2022-12-31T10:27:27.820Z,97929.13
2022-12-31T10:30:20.431Z,97929.22
2022-12-31T10:33:18.042Z,97927.31
2022-12-31T10:35:59.548Z,97935.63
2022-12-31T10:38:43.728Z,97937.28
2022-12-31T10:41:58.198Z,97944.25
2022-12-31T10:44:52.895Z,97939.25
2022-12-31T10:47:47.419Z,97929.53
2022-12-31T10:51:11.028Z,97925.59
2022-12-31T10:54:26.687Z,97917.81
2022-12-31T10:57:26.421Z,97920.44
2022-12-31T11:00:38.875Z,97938.81
2022-12-31T11:03:33.898Z,97917.78
2022-12-31T11:06:40.505Z,97914.41
2022-12-31T11:09:34.978Z,97926.38
2022-12-31T11:12:38.789Z,97927.75
2022-12-31T11:15:38.303Z,97930.22
2022-12-31T11:18:30.411Z,97917.41
2022-12-31T11:21:28.171Z,97935.19
2022-12-31T11:24:07.316Z,97931.94
2022-12-31T11:26:45.325Z,97919.63
2022-12-31T11:29:28.691Z,97933.97
2022-12-31T11:32:22.538Z,97924.06
2022-12-31T11:35:23.184Z,97921.25
2022-12-31T11:38:29.927Z,97931.28
2022-12-31T11:41:07.911Z,97937.19
2022-12-31T11:43:49.507Z,97931.34
2022-12-31T11:46:50.980Z,97932.06
2022-12-31T11:49:53.625Z,97917.41
2022-12-31T11:52:54.303Z,97921.81
2022-12-31T11:56:05.542Z,97931.41
2022-12-31T11:58:32.204Z,97919.41
2022-12-31T12:01:17.320Z,97916.75
2022-12-31T12:03:45.483Z,97911.22
2022-12-31T12:06:16.704Z,97907.75
2022-12-31T12:08:45.720Z,97913.00
2022-12-31T12:11:26.285Z,97899.56
2022-12-31T12:13:53.110Z,97909.03
2022-12-31T12:16:23.596Z,97906.88
2022-12-31T12:19:07.277Z,97903.31
2022-12-31T12:21:34.634Z,97905.22
2022-12-31T12:24:26.853Z,97907.19
2022-12-31T12:26:53.631Z,97909.41
2022-12-31T12:29:35.131Z,97926.44
2022-12-31T12:32:03.386Z,97923.34
2022-12-31T12:34:39.479Z,97915.91
2022-12-31T12:37:35.277Z,97919.84
2022-12-31T12:40:19.027Z,97910.22
2022-12-31T12:42:52.348Z,97910.38
2022-12-31T12:45:25.001Z,97912.28
2022-12-31T12:48:07.550Z,97916.66
2022-12-31T12:50:47.097Z,97921.38
2022-12-31T12:53:43.251Z,97921.84
2022-12-31T12:56:37.046Z,97917.16
2022-12-31T12:59:57.521Z,97908.69
2022-12-31T13:02:48.618Z,97915.16
2022-12-31T13:05:49.684Z,97904.75
2022-12-31T13:08:43.301Z,97901.78
2022-12-31T13:11:34.331Z,97904.03
2022-12-31T13:14:15.720Z,97914.53
2022-12-31T13:17:28.205Z,97901.97
2022-12-31T13:20:08.859Z,97908.38
2022-12-31T13:22:48.285Z,97905.72
2022-12-31T13:25:34.967Z,97916.63
2022-12-31T13:28:10.005Z,97930.47
2022-12-31T13:30:49.237Z,97931.56
2022-12-31T13:33:25.590Z,97936.88
2022-12-31T13:35:59.850Z,97936.72
2022-12-31T13:38:50.824Z,97948.28
2022-12-31T13:41:39.804Z,97943.50
2022-12-31T13:44:55.149Z,97943.81
2022-12-31T13:47:40.730Z,97936.72
2022-12-31T13:50:42.663Z,97949.34
2022-12-31T13:53:20.636Z,97944.50
2022-12-31T13:56:01.842Z,97942.66
2022-12-31T13:58:53.096Z,97951.88
2022-12-31T14:01:40.550Z,97953.78
2022-12-31T14:04:25.152Z,97958.41
2022-12-31T14:07:12.413Z,97955.63
2022-12-31T14:09:39.007Z,97961.69
2022-12-31T14:12:43.192Z,97950.81
2022-12-31T14:15:33.316Z,97959.56
2022-12-31T14:18:52.678Z,97957.13
2022-12-31T14:22:02.662Z,97944.94
2022-12-31T14:24:46.401Z,97954.56
2022-12-31T14:27:34.684Z,97955.00
2022-12-31T14:30:11.415Z,97955.84
2022-12-31T14:33:21.375Z,97953.19
2022-12-31T14:35:57.863Z,97942.72
2022-12-31T14:39:07.451Z,97956.44
2022-12-31T14:41:46.915Z,97958.41
2022-12-31T14:45:05.236Z,97964.31
2022-12-31T14:48:04.714Z,97961.25
2022-12-31T14:50:34.566Z,97967.38
2022-12-31T14:53:03.658Z,97970.66
2022-12-31T14:55:33.968Z,97973.66
2022-12-31T14:58:28.406Z,97965.13
2022-12-31T15:01:04.315Z,97967.09
2022-12-31T15:03:30.869Z,97977.69
2022-12-31T15:06:24.712Z,97973.13
2022-12-31T15:09:20.417Z,97969.28
2022-12-31T15:12:08.370Z,97967.97
2022-12-31T15:15:03.917Z,97964.53
2022-12-31T15:17:57.281Z,97958.38
2022-12-31T15:20:47.980Z,97944.59
2022-12-31T15:23:44.776Z,97942.81
2022-12-31T15:26:28.330Z,97960.13
2022-12-31T15:29:03.905Z,97958.75
2022-12-31T15:31:35.267Z,97960.97
2022-12-31T15:34:23.448Z,97967.63
2022-12-31T15:37:00.749Z,97972.09
2022-12-31T15:39:32.901Z,97979.38
2022-12-31T15:42:36.854Z,97984.09
2022-12-31T15:45:03.901Z,97976.72
2022-12-31T15:47:38.652Z,97983.28
2022-12-31T15:50:18.799Z,97981.59
2022-12-31T15:52:53.699Z,97997.47
2022-12-31T15:55:50.896Z,97996.09
2022-12-31T15:58:25.090Z,98001.22
2022-12-31T16:01:15.557Z,98010.44
2022-12-31T16:03:59.497Z,98007.38
2022-12-31T16:06:30.320Z,97999.16
2022-12-31T16:08:57.668Z,98013.06
2022-12-31T16:11:24.945Z,98019.09
2022-12-31T16:13:56.684Z,98018.94
2022-12-31T16:16:26.591Z,98009.16
2022-12-31T16:18:53.992Z,98000.00
2022-12-31T16:21:34.325Z,98002.09
2022-12-31T16:24:23.110Z,98012.66
2022-12-31T16:26:54.945Z,98011.53
2022-12-31T16:29:24.039Z,98009.75
2022-12-31T16:31:53.735Z,98002.63
2022-12-31T16:34:25.465Z,98010.69
2022-12-31T16:37:02.262Z,98004.72
2022-12-31T16:39:58.829Z,98000.38
2022-12-31T16:42:29.228Z,98008.31
2022-12-31T16:44:57.506Z,98009.44
2022-12-31T16:47:31.057Z,97997.75
2022-12-31T16:50:21.869Z,97999.09
2022-12-31T16:52:57.785Z,98002.47
2022-12-31T16:55:28.664Z,97995.94
2022-12-31T16:58:14.669Z,97993.91
2022-12-31T17:00:42.900Z,97999.16
2022-12-31T17:03:25.122Z,97984.41
2022-12-31T17:06:12.392Z,97994.56
2022-12-31T17:08:45.970Z,97999.72
2022-12-31T17:11:36.436Z,98004.72
2022-12-31T17:14:05.619Z,97996.22
2022-12-31T17:16:38.726Z,98002.59
2022-12-31T17:19:05.844Z,98000.53
2022-12-31T17:21:33.392Z,98003.75
2022-12-31T17:24:07.171Z,97998.47
2022-12-31T17:26:38.303Z,97992.75
2022-12-31T17:29:05.811Z,98002.53
2022-12-31T17:31:37.342Z,98000.16
2022-12-31T17:34:22.199Z,98008.03
2022-12-31T17:37:18.285Z,98010.41
2022-12-31T17:39:54.180Z,98018.19
2022-12-31T17:42:36.730Z,98016.50
2022-12-31T17:45:15.403Z,98016.50
2022-12-31T17:47:50.921Z,98022.59
2022-12-31T17:50:26.895Z,98020.69
2022-12-31T17:53:02.550Z,98029.03
2022-12-31T17:55:29.473Z,98023.19
2022-12-31T17:57:57.824Z,98023.81
2022-12-31T18:00:27.419Z,98018.34
2022-12-31T18:02:54.037Z,98020.69
2022-12-31T18:05:24.347Z,98027.22
2022-12-31T18:07:51.799Z,98015.81
2022-12-31T18:10:23.951Z,98023.75
2022-12-31T18:12:50.861Z,98005.25
2022-12-31T18:15:21.903Z,98017.47
2022-12-31T18:17:49.289Z,98004.78
2022-12-31T18:20:16.358Z,98000.06
2022-12-31T18:22:44.990Z,97999.47
2022-12-31T18:25:21.142Z,97993.38
2022-12-31T18:27:49.660Z,97994.19
2022-12-31T18:30:16.884Z,97993.94
2022-12-31T18:32:45.877Z,97995.59
2022-12-31T18:36:06.603Z,97998.38
2022-12-31T18:38:13.388Z,97986.81
2022-12-31T18:40:44.231Z,97980.28
2022-12-31T18:43:17.297Z,97994.13
2022-12-31T18:45:46.255Z,97987.56
2022-12-31T18:48:13.342Z,97981.63
2022-12-31T18:50:40.962Z,97989.13
2022-12-31T18:53:17.749Z,97987.16
2022-12-31T18:55:54.655Z,97991.03
2022-12-31T18:58:24.579Z,97993.44
2022-12-31T19:00:52.223Z,97990.53
2022-12-31T19:03:23.106Z,97988.84
2022-12-31T19:05:51.180Z,97989.94
2022-12-31T19:08:19.806Z,97987.72
2022-12-31T19:10:48.273Z,97984.78
2022-12-31T19:13:17.631Z,97987.13
2022-12-31T19:15:53.008Z,97987.97
2022-12-31T19:18:19.763Z,98003.56
2022-12-31T19:20:46.861Z,97998.13
2022-12-31T19:23:20.352Z,98004.16
2022-12-31T19:25:49.274Z,97993.56
2022-12-31T19:28:23.408Z,97996.88
2022-12-31T19:30:50.564Z,98001.88
2022-12-31T19:33:18.152Z,98009.38
2022-12-31T19:35:45.580Z,98003.66
2022-12-31T19:38:17.591Z,98004.59
2022-12-31T19:40:44.349Z,98000.03
2022-12-31T19:43:17.306Z,98011.00
2022-12-31T19:45:45.280Z,98003.19
2022-12-31T19:48:25.860Z,97994.81
2022-12-31T19:50:56.974Z,97999.66
2022-12-31T19:53:27.091Z,98002.09
2022-12-31T19:55:54.121Z,97999.31
2022-12-31T19:58:26.331Z,98002.91
2022-12-31T20:01:02.022Z,98006.28
2022-12-31T20:03:31.533Z,98004.34
2022-12-31T20:06:08.702Z,98005.44
2022-12-31T20:08:38.598Z,98004.81
2022-12-31T20:11:21.409Z,98016.59
2022-12-31T20:13:50.123Z,98017.44
2022-12-31T20:16:20.009Z,98005.16
2022-12-31T20:18:48.289Z,98020.44
2022-12-31T20:21:19.288Z,98024.06
2022-12-31T20:23:46.892Z,98024.06
2022-12-31T20:26:14.345Z,98017.88
2022-12-31T20:28:40.960Z,98022.63
2022-12-31T20:31:15.533Z,98024.97
2022-12-31T20:33:42.867Z,98034.31
2022-12-31T20:36:13.701Z,98028.25
2022-12-31T20:38:40.533Z,98039.63
2022-12-31T20:41:20.096Z,98039.78
2022-12-31T20:43:47.986Z,98052.59
2022-12-31T20:46:25.296Z,98043.41
2022-12-31T20:48:55.730Z,98053.47
2022-12-31T20:51:23.908Z,98039.78
2022-12-31T20:53:59.260Z,98059.28
2022-12-31T20:56:29.614Z,98060.16
2022-12-31T20:58:56.933Z,98068.28
2022-12-31T21:01:25.481Z,98074.41
2022-12-31T21:04:05.033Z,98072.16
2022-12-31T21:06:33.628Z,98081.00
2022-12-31T21:09:04.081Z,98082.44
2022-12-31T21:11:49.523Z,98087.72
2022-12-31T21:14:16.241Z,98094.81
2022-12-31T21:16:42.784Z,98082.19
2022-12-31T21:19:10.029Z,98099.44
2022-12-31T21:21:37.249Z,98092.16
2022-12-31T21:24:04.200Z,98110.78
2022-12-31T21:26:30.821Z,98090.63
2022-12-31T21:28:57.589Z,98090.94
2022-12-31T21:31:24.184Z,98087.47
2022-12-31T21:33:50.764Z,98091.06
2022-12-31T21:36:17.319Z,98086.50
2022-12-31T21:38:44.461Z,98085.28
2022-12-31T21:41:34.934Z,98096.38
2022-12-31T21:44:02.548Z,98099.97
2022-12-31T21:46:29.418Z,98111.44
2022-12-31T21:49:00.408Z,98110.69
2022-12-31T21:51:28.635Z,98112.84
2022-12-31T21:53:55.276Z,98115.84
2022-12-31T21:56:22.699Z,98115.84
2022-12-31T21:59:14.770Z,98113.00
2022-12-31T22:02:01.610Z,98122.69
2022-12-31T22:05:00.846Z,98130.06
2022-12-31T22:07:15.228Z,98132.34
2022-12-31T22:09:41.753Z,98136.31
2022-12-31T22:12:08.256Z,98127.38
2022-12-31T22:14:34.918Z,98136.00
2022-12-31T22:17:01.364Z,98139.88
2022-12-31T22:19:27.876Z,98148.47
2022-12-31T22:21:54.359Z,98146.09
2022-12-31T22:24:20.834Z,98158.44
2022-12-31T22:26:47.354Z,98157.03
2022-12-31T22:29:14.134Z,98152.25
2022-12-31T22:31:40.777Z,98162.81
2022-12-31T22:34:07.471Z,98157.28
2022-12-31T22:36:33.961Z,98156.69
2022-12-31T22:39:00.577Z,98161.47
2022-12-31T22:41:28.247Z,98156.31
2022-12-31T22:44:03.029Z,98160.00
2022-12-31T22:46:30.153Z,98168.06
2022-12-31T22:48:59.174Z,98164.94
2022-12-31T22:51:30.526Z,98160.16
2022-12-31T22:54:14.150Z,98166.66
2022-12-31T22:56:40.867Z,98155.81
2022-12-31T22:59:07.383Z,98157.97
2022-12-31T23:01:34.357Z,98156.53
2022-12-31T23:04:01.079Z,98164.94
2022-12-31T23:06:28.683Z,98164.94
2022-12-31T23:09:15.499Z,98166.03
2022-12-31T23:11:43.200Z,98165.44
2022-12-31T23:14:35.427Z,98172.63
2022-12-31T23:17:29.474Z,98176.22
2022-12-31T23:20:17.338Z,98163.13
2022-12-31T23:23:02.526Z,98154.13
2022-12-31T23:25:33.078Z,98165.50
2022-12-31T23:27:59.586Z,98164.69
2022-12-31T23:30:26.400Z,98163.84
2022-12-31T23:32:52.869Z,98157.50
2022-12-31T23:35:19.371Z,98163.50
2022-12-31T23:37:45.861Z,98165.91
2022-12-31T23:40:20.612Z,98166.16
2022-12-31T23:42:48.079Z,98152.00
2022-12-31T23:45:14.771Z,98158.00
2022-12-31T23:47:41.401Z,98153.91
2022-12-31T23:50:08.617Z,98161.13
2022-12-31T23:52:35.283Z,98159.69
2022-12-31T23:55:03.481Z,98165.81
2022-12-31T23:57:30.036Z,98155.09
2022-12-31T23:59:56.547Z,98160.88
